sensor_id;sensor_type;location;lat;lon;timestamp;pressure;altitude;pressure_sealevel;temperature;humidity
78509;BME280;67802;50.846;7.958;2023-04-10T00:02:17;98482.47;;;20.70;31.28
78509;BME280;67802;50.846;7.958;2023-04-10T00:04:43;98477.34;;;20.68;31.23
78509;BME280;67802;50.846;7.958;2023-04-10T00:07:08;98481.88;;;20.66;31.28
78509;BME280;67802;50.846;7.958;2023-04-10T00:09:33;98476.72;;;20.65;31.18
78509;BME280;67802;50.846;7.958;2023-04-10T00:11:59;98481.28;;;20.63;31.27
78509;BME280;67802;50.846;7.958;2023-04-10T00:14:25;98476.09;;;20.61;31.26
78509;BME280;67802;50.846;7.958;2023-04-10T00:16:50;98484.16;;;20.59;31.24
78509;BME280;67802;50.846;7.958;2023-04-10T00:19:16;98477.19;;;20.58;31.18
78509;BME280;67802;50.846;7.958;2023-04-10T00:21:41;98471.19;;;20.56;31.33
78509;BME280;67802;50.846;7.958;2023-04-10T00:24:07;98467.69;;;20.56;31.35
78509;BME280;67802;50.846;7.958;2023-04-10T00:26:33;98460.72;;;20.55;31.19
78509;BME280;67802;50.846;7.958;2023-04-10T00:28:59;98458.22;;;20.53;31.29
78509;BME280;67802;50.846;7.958;2023-04-10T00:31:24;98456.53;;;20.52;31.08
78509;BME280;67802;50.846;7.958;2023-04-10T00:33:49;98454.84;;;20.51;31.16
78509;BME280;67802;50.846;7.958;2023-04-10T00:36:17;98457.47;;;20.51;31.30
78509;BME280;67802;50.846;7.958;2023-04-10T00:38:42;98449.56;;;20.51;31.29
78509;BME280;67802;50.846;7.958;2023-04-10T00:41:08;98447.88;;;20.50;31.07
78509;BME280;67802;50.846;7.958;2023-04-10T00:43:33;98447.88;;;20.50;31.03
78509;BME280;67802;50.846;7.958;2023-04-10T00:45:58;98442.69;;;20.49;31.26
78509;BME280;67802;50.846;7.958;2023-04-10T00:48:25;98448.84;;;20.49;31.34
78509;BME280;67802;50.846;7.958;2023-04-10T00:50:50;98449.78;;;20.48;31.30
78509;BME280;67802;50.846;7.958;2023-04-10T00:53:15;98454.22;;;20.48;31.23
78509;BME280;67802;50.846;7.958;2023-04-10T00:55:42;98443.56;;;20.49;31.08
78509;BME280;67802;50.846;7.958;2023-04-10T00:58:07;98438.38;;;20.48;31.00
78509;BME280;67802;50.846;7.958;2023-04-10T01:00:37;98439.22;;;20.48;31.16
78509;BME280;67802;50.846;7.958;2023-04-10T01:03:02;98428.69;;;20.48;31.13
78509;BME280;67802;50.846;7.958;2023-04-10T01:05:34;98428.53;;;20.50;31.14
78509;BME280;67802;50.846;7.958;2023-04-10T01:13:22;98433.94;;;20.48;31.08
78509;BME280;67802;50.846;7.958;2023-04-10T01:16:13;98434.69;;;20.50;30.98
78509;BME280;67802;50.846;7.958;2023-04-10T01:18:47;98428.44;;;20.51;30.96
78509;BME280;67802;50.846;7.958;2023-04-10T01:21:15;98429.28;;;20.52;30.98
78509;BME280;67802;50.846;7.958;2023-04-10T01:24:00;98421.25;;;20.53;30.96
78509;BME280;67802;50.846;7.958;2023-04-10T01:26:38;98417.66;;;20.54;30.90
78509;BME280;67802;50.846;7.958;2023-04-10T01:29:08;98414.06;;;20.55;30.91
78509;BME280;67802;50.846;7.958;2023-04-10T01:31:54;98416.56;;;20.57;30.90
78509;BME280;67802;50.846;7.958;2023-04-10T01:34:31;98406.88;;;20.57;30.89
78509;BME280;67802;50.846;7.958;2023-04-10T01:37:03;98410.25;;;20.59;30.84
78509;BME280;67802;50.846;7.958;2023-04-10T01:39:29;98418.88;;;20.61;30.82
78509;BME280;67802;50.846;7.958;2023-04-10T01:41:56;98411.78;;;20.62;30.73
78509;BME280;67802;50.846;7.958;2023-04-10T01:44:24;98406.41;;;20.64;30.78
78509;BME280;67802;50.846;7.958;2023-04-10T01:46:53;98416.03;;;20.65;30.85
78509;BME280;67802;50.846;7.958;2023-04-10T01:49:20;98412.41;;;20.66;30.70
78509;BME280;67802;50.846;7.958;2023-04-10T01:51:47;98414.06;;;20.67;30.62
78509;BME280;67802;50.846;7.958;2023-04-10T01:54:14;98409.78;;;20.66;30.57
78509;BME280;67802;50.846;7.958;2023-04-10T01:56:40;98417.56;;;20.67;30.60
78509;BME280;67802;50.846;7.958;2023-04-10T01:59:06;98412.28;;;20.67;30.55
78509;BME280;67802;50.846;7.958;2023-04-10T02:01:32;98413.13;;;20.68;30.62
78509;BME280;67802;50.846;7.958;2023-04-10T02:03:58;98408.69;;;20.68;30.56
78509;BME280;67802;50.846;7.958;2023-04-10T02:06:43;98410.38;;;20.69;30.52
78509;BME280;67802;50.846;7.958;2023-04-10T02:09:27;98413.00;;;20.69;30.53
78509;BME280;67802;50.846;7.958;2023-04-10T02:11:59;98403.41;;;20.68;30.54
78509;BME280;67802;50.846;7.958;2023-04-10T02:14:26;98404.25;;;20.69;30.58
78509;BME280;67802;50.846;7.958;2023-04-10T02:16:55;98404.25;;;20.69;30.69
78509;BME280;67802;50.846;7.958;2023-04-10T02:19:22;98398.97;;;20.69;30.42
78509;BME280;67802;50.846;7.958;2023-04-10T02:21:50;98383.13;;;20.69;30.45
78509;BME280;67802;50.846;7.958;2023-04-10T02:24:16;98381.44;;;20.68;30.50
78509;BME280;67802;50.846;7.958;2023-04-10T02:26:44;98382.28;;;20.68;30.47
78509;BME280;67802;50.846;7.958;2023-04-10T02:29:10;98375.19;;;20.69;30.34
78509;BME280;67802;50.846;7.958;2023-04-10T02:31:36;98368.25;;;20.68;30.48
78509;BME280;67802;50.846;7.958;2023-04-10T02:34:01;98366.47;;;20.68;30.40
78509;BME280;67802;50.846;7.958;2023-04-10T02:36:27;98369.09;;;20.68;30.40
78509;BME280;67802;50.846;7.958;2023-04-10T02:38:52;98365.59;;;20.68;30.22
78509;BME280;67802;50.846;7.958;2023-04-10T02:41:17;98367.41;;;20.67;30.24
78509;BME280;67802;50.846;7.958;2023-04-10T02:43:43;98368.25;;;20.68;30.26
78509;BME280;67802;50.846;7.958;2023-04-10T02:46:08;98359.50;;;20.67;30.34
78509;BME280;67802;50.846;7.958;2023-04-10T02:48:33;98361.28;;;20.67;29.97
78509;BME280;67802;50.846;7.958;2023-04-10T02:50:58;98357.81;;;20.66;30.32
78509;BME280;67802;50.846;7.958;2023-04-10T02:53:24;98349.06;;;20.66;30.40
78509;BME280;67802;50.846;7.958;2023-04-10T02:55:51;98350.03;;;20.65;30.33
78509;BME280;67802;50.846;7.958;2023-04-10T02:58:16;98339.47;;;20.65;30.42
78509;BME280;67802;50.846;7.958;2023-04-10T03:00:47;98331.66;;;20.63;30.43
78509;BME280;67802;50.846;7.958;2023-04-10T03:03:12;98336.94;;;20.63;30.46
78509;BME280;67802;50.846;7.958;2023-04-10T03:05:38;98336.22;;;20.61;30.44
78509;BME280;67802;50.846;7.958;2023-04-10T03:08:03;98334.41;;;20.61;30.39
78509;BME280;67802;50.846;7.958;2023-04-10T03:10:29;98330.19;;;20.59;30.27
78509;BME280;67802;50.846;7.958;2023-04-10T03:12:54;98334.66;;;20.58;30.21
78509;BME280;67802;50.846;7.958;2023-04-10T03:15:20;98336.56;;;20.56;30.49
78509;BME280;67802;50.846;7.958;2023-04-10T03:17:45;98323.38;;;20.56;30.42
78509;BME280;67802;50.846;7.958;2023-04-10T03:20:11;98323.59;;;20.53;30.48
78509;BME280;67802;50.846;7.958;2023-04-10T03:22:37;98325.53;;;20.51;30.53
78509;BME280;67802;50.846;7.958;2023-04-10T03:25:02;98321.19;;;20.50;30.45
78509;BME280;67802;50.846;7.958;2023-04-10T03:27:27;98331.03;;;20.48;30.48
78509;BME280;67802;50.846;7.958;2023-04-10T03:29:56;98328.50;;;20.46;30.35
78509;BME280;67802;50.846;7.958;2023-04-10T03:32:21;98326.00;;;20.45;30.52
78509;BME280;67802;50.846;7.958;2023-04-10T03:34:46;98325.13;;;20.44;30.54
78509;BME280;67802;50.846;7.958;2023-04-10T03:37:12;98334.13;;;20.42;30.52
78509;BME280;67802;50.846;7.958;2023-04-10T03:39:37;98333.28;;;20.41;30.46
78509;BME280;67802;50.846;7.958;2023-04-10T03:42:02;98327.31;;;20.39;30.49
78509;BME280;67802;50.846;7.958;2023-04-10T03:44:28;98322.97;;;20.38;30.43
78509;BME280;67802;50.846;7.958;2023-04-10T03:46:53;98328.25;;;20.38;30.63
78509;BME280;67802;50.846;7.958;2023-04-10T03:49:18;98318.75;;;20.36;30.44
78509;BME280;67802;50.846;7.958;2023-04-10T03:51:44;98317.94;;;20.35;30.55
78509;BME280;67802;50.846;7.958;2023-04-10T03:54:10;98322.34;;;20.35;30.60
78509;BME280;67802;50.846;7.958;2023-04-10T03:56:35;98318.03;;;20.34;30.44
78509;BME280;67802;50.846;7.958;2023-04-10T03:59:00;98320.69;;;20.34;30.54
78509;BME280;67802;50.846;7.958;2023-04-10T04:01:26;98320.69;;;20.34;30.54
78509;BME280;67802;50.846;7.958;2023-04-10T04:03:51;98316.34;;;20.33;30.40
78509;BME280;67802;50.846;7.958;2023-04-10T04:06:16;98313.72;;;20.33;30.42
78509;BME280;67802;50.846;7.958;2023-04-10T04:08:42;98314.56;;;20.33;30.48
78509;BME280;67802;50.846;7.958;2023-04-10T04:11:07;98320.69;;;20.34;30.48
78509;BME280;67802;50.846;7.958;2023-04-10T04:13:33;98310.13;;;20.34;30.33
78509;BME280;67802;50.846;7.958;2023-04-10T04:15:58;98320.69;;;20.34;30.53
78509;BME280;67802;50.846;7.958;2023-04-10T04:18:24;98315.41;;;20.34;30.39
78509;BME280;67802;50.846;7.958;2023-04-10T04:20:49;98312.75;;;20.34;30.46
78509;BME280;67802;50.846;7.958;2023-04-10T04:23:15;98308.34;;;20.34;30.32
78509;BME280;67802;50.846;7.958;2023-04-10T04:25:41;98306.53;;;20.35;30.50
78509;BME280;67802;50.846;7.958;2023-04-10T04:28:07;98313.50;;;20.36;30.47
78509;BME280;67802;50.846;7.958;2023-04-10T04:30:33;98312.53;;;20.37;30.38
78509;BME280;67802;50.846;7.958;2023-04-10T04:32:59;98305.47;;;20.37;30.31
78509;BME280;67802;50.846;7.958;2023-04-10T04:35:24;98310.63;;;20.39;30.39
78509;BME280;67802;50.846;7.958;2023-04-10T04:37:49;98314.94;;;20.40;30.31
78509;BME280;67802;50.846;7.958;2023-04-10T04:40:15;98306.06;;;20.41;30.38
78509;BME280;67802;50.846;7.958;2023-04-10T04:42:40;98313.03;;;20.42;30.51
78509;BME280;67802;50.846;7.958;2023-04-10T04:45:06;98312.06;;;20.43;30.26
78509;BME280;67802;50.846;7.958;2023-04-10T04:47:31;98305.84;;;20.44;30.18
78509;BME280;67802;50.846;7.958;2023-04-10T04:49:57;98309.19;;;20.46;30.20
78509;BME280;67802;50.846;7.958;2023-04-10T04:52:22;98296.00;;;20.46;30.27
78509;BME280;67802;50.846;7.958;2023-04-10T04:54:47;98300.31;;;20.47;30.20
78509;BME280;67802;50.846;7.958;2023-04-10T04:57:13;98295.88;;;20.48;30.19
78509;BME280;67802;50.846;7.958;2023-04-10T04:59:38;98294.81;;;20.50;30.15
78509;BME280;67802;50.846;7.958;2023-04-10T05:02:03;98290.34;;;20.51;30.27
78509;BME280;67802;50.846;7.958;2023-04-10T05:04:28;98282.34;;;20.52;30.23
78509;BME280;67802;50.846;7.958;2023-04-10T05:06:54;98290.13;;;20.54;30.16
78509;BME280;67802;50.846;7.958;2023-04-10T05:09:19;98280.41;;;20.54;30.14
78509;BME280;67802;50.846;7.958;2023-04-10T05:11:45;98292.66;;;20.55;30.39
78509;BME280;67802;50.846;7.958;2023-04-10T05:14:10;98286.44;;;20.56;30.07
78509;BME280;67802;50.846;7.958;2023-04-10T05:16:35;98280.19;;;20.57;30.00
78509;BME280;67802;50.846;7.958;2023-04-10T05:19:01;98281.00;;;20.58;30.16
78509;BME280;67802;50.846;7.958;2023-04-10T05:21:26;98276.59;;;20.58;30.05
78509;BME280;67802;50.846;7.958;2023-04-10T05:23:51;98285.34;;;20.59;30.15
78509;BME280;67802;50.846;7.958;2023-04-10T05:26:16;98284.38;;;20.60;30.06
78509;BME280;67802;50.846;7.958;2023-04-10T05:28:42;98287.00;;;20.60;30.20
78509;BME280;67802;50.846;7.958;2023-04-10T05:31:07;98288.81;;;20.59;30.04
78509;BME280;67802;50.846;7.958;2023-04-10T05:33:32;98291.22;;;20.63;30.05
78509;BME280;67802;50.846;7.958;2023-04-10T05:35:58;98294.69;;;20.63;30.03
78509;BME280;67802;50.846;7.958;2023-04-10T05:38:23;98291.22;;;20.63;29.96
78509;BME280;67802;50.846;7.958;2023-04-10T05:40:48;98287.63;;;20.64;29.90
78509;BME280;67802;50.846;7.958;2023-04-10T05:43:14;98286.69;;;20.65;29.86
78509;BME280;67802;50.846;7.958;2023-04-10T05:45:43;98288.47;;;20.64;29.93
78509;BME280;67802;50.846;7.958;2023-04-10T05:48:08;98288.34;;;20.66;29.90
78509;BME280;67802;50.846;7.958;2023-04-10T05:50:34;98277.78;;;20.66;29.90
78509;BME280;67802;50.846;7.958;2023-04-10T05:52:59;98279.44;;;20.67;29.96
78509;BME280;67802;50.846;7.958;2023-04-10T05:55:25;98275.84;;;20.68;29.88
78509;BME280;67802;50.846;7.958;2023-04-10T05:57:50;98288.09;;;20.69;29.80
78509;BME280;67802;50.846;7.958;2023-04-10T06:00:16;98292.53;;;20.68;29.87
78509;BME280;67802;50.846;7.958;2023-04-10T06:02:42;98281.97;;;20.68;29.86
78509;BME280;67802;50.846;7.958;2023-04-10T06:05:07;98288.09;;;20.69;29.79
78509;BME280;67802;50.846;7.958;2023-04-10T06:07:33;98295.03;;;20.70;29.85
78509;BME280;67802;50.846;7.958;2023-04-10T06:09:58;98287.13;;;20.70;29.80
78509;BME280;67802;50.846;7.958;2023-04-10T06:12:23;98302.00;;;20.71;29.85
78509;BME280;67802;50.846;7.958;2023-04-10T06:14:48;98287.13;;;20.70;29.91
78509;BME280;67802;50.846;7.958;2023-04-10T06:17:14;98286.16;;;20.71;29.77
78509;BME280;67802;50.846;7.958;2023-04-10T06:19:39;98295.03;;;20.70;29.87
78509;BME280;67802;50.846;7.958;2023-04-10T06:22:05;98284.50;;;20.70;29.79
78509;BME280;67802;50.846;7.958;2023-04-10T06:24:30;98280.06;;;20.70;29.87
78509;BME280;67802;50.846;7.958;2023-04-10T06:26:56;98283.53;;;20.71;29.78
78509;BME280;67802;50.846;7.958;2023-04-10T06:29:22;98279.22;;;20.70;29.83
78509;BME280;67802;50.846;7.958;2023-04-10T06:31:47;98274.88;;;20.69;29.80
78509;BME280;67802;50.846;7.958;2023-04-10T06:34:12;98281.13;;;20.68;29.53
78509;BME280;67802;50.846;7.958;2023-04-10T06:36:38;98274.16;;;20.67;29.67
78509;BME280;67802;50.846;7.958;2023-04-10T06:39:03;98275.97;;;20.66;29.89
78509;BME280;67802;50.846;7.958;2023-04-10T06:41:28;98276.94;;;20.65;29.94
78509;BME280;67802;50.846;7.958;2023-04-10T06:43:54;98284.13;;;20.63;29.81
78509;BME280;67802;50.846;7.958;2023-04-10T06:46:19;98272.75;;;20.63;29.99
78509;BME280;67802;50.846;7.958;2023-04-10T06:48:45;98271.91;;;20.62;29.82
78509;BME280;67802;50.846;7.958;2023-04-10T06:51:10;98279.94;;;20.60;29.80
78509;BME280;67802;50.846;7.958;2023-04-10T06:53:35;98277.41;;;20.59;29.92
78509;BME280;67802;50.846;7.958;2023-04-10T06:56:01;98276.59;;;20.58;29.89
78509;BME280;67802;50.846;7.958;2023-04-10T06:58:26;98278.50;;;20.56;29.98
78509;BME280;67802;50.846;7.958;2023-04-10T07:00:51;98275.09;;;20.31;30.27
78509;BME280;67802;50.846;7.958;2023-04-10T07:03:18;98275.03;;;19.97;30.97
78509;BME280;67802;50.846;7.958;2023-04-10T07:05:43;98270.81;;;19.70;31.36
78509;BME280;67802;50.846;7.958;2023-04-10T07:08:08;98276.81;;;19.48;31.87
78509;BME280;67802;50.846;7.958;2023-04-10T07:10:34;98268.47;;;19.30;30.46
78509;BME280;67802;50.846;7.958;2023-04-10T07:13:00;98276.09;;;19.09;29.50
78509;BME280;67802;50.846;7.958;2023-04-10T07:15:25;98276.06;;;19.70;29.30
78509;BME280;67802;50.846;7.958;2023-04-10T07:17:51;98276.56;;;20.70;28.21
78509;BME280;67802;50.846;7.958;2023-04-10T07:20:16;98275.75;;;21.59;27.15
78509;BME280;67802;50.846;7.958;2023-04-10T07:22:41;98267.13;;;22.32;26.30
78509;BME280;67802;50.846;7.958;2023-04-10T07:25:07;98280.81;;;22.89;25.54
78509;BME280;67802;50.846;7.958;2023-04-10T07:27:32;98272.72;;;23.32;25.03
78509;BME280;67802;50.846;7.958;2023-04-10T07:29:58;98269.84;;;23.54;25.71
78509;BME280;67802;50.846;7.958;2023-04-10T07:32:23;98278.78;;;23.53;25.89
78509;BME280;67802;50.846;7.958;2023-04-10T07:34:48;98268.72;;;23.86;25.86
78509;BME280;67802;50.846;7.958;2023-04-10T07:37:14;98270.13;;;24.10;25.66
78509;BME280;67802;50.846;7.958;2023-04-10T07:39:39;98269.81;;;24.23;25.80
78509;BME280;67802;50.846;7.958;2023-04-10T07:42:05;98264.22;;;24.36;25.71
78509;BME280;67802;50.846;7.958;2023-04-10T07:44:31;98263.22;;;24.47;25.95
78509;BME280;67802;50.846;7.958;2023-04-10T07:46:56;98268.34;;;24.58;25.71
78509;BME280;67802;50.846;7.958;2023-04-10T07:49:22;98259.78;;;24.74;25.67
78509;BME280;67802;50.846;7.958;2023-04-10T07:51:48;98259.91;;;24.83;25.69
78509;BME280;67802;50.846;7.958;2023-04-10T07:54:14;98257.47;;;24.89;26.05
78509;BME280;67802;50.846;7.958;2023-04-10T07:56:39;98251.53;;;24.78;24.97
78509;BME280;67802;50.846;7.958;2023-04-10T07:59:05;98254.88;;;24.22;25.61
78509;BME280;67802;50.846;7.958;2023-04-10T08:01:30;98251.56;;;23.71;26.16
78509;BME280;67802;50.846;7.958;2023-04-10T08:03:55;98247.88;;;23.33;26.84
78509;BME280;67802;50.846;7.958;2023-04-10T08:06:21;98250.78;;;23.20;27.10
78509;BME280;67802;50.846;7.958;2023-04-10T08:08:46;98241.13;;;23.09;27.09
78509;BME280;67802;50.846;7.958;2023-04-10T08:11:39;98244.75;;;22.98;27.29
78509;BME280;67802;50.846;7.958;2023-04-10T08:14:04;98236.75;;;22.88;27.59
78509;BME280;67802;50.846;7.958;2023-04-10T08:16:32;98241.47;;;22.75;27.50
78509;BME280;67802;50.846;7.958;2023-04-10T08:18:59;98232.38;;;22.67;28.07
78509;BME280;67802;50.846;7.958;2023-04-10T08:21:26;98236.44;;;22.72;28.20
78509;BME280;67802;50.846;7.958;2023-04-10T08:23:57;98219.00;;;22.79;27.66
78509;BME280;67802;50.846;7.958;2023-04-10T08:26:24;98219.44;;;22.84;27.48
78509;BME280;67802;50.846;7.958;2023-04-10T08:28:51;98221.00;;;22.87;27.50
78509;BME280;67802;50.846;7.958;2023-04-10T08:31:17;98221.44;;;22.92;27.43
78509;BME280;67802;50.846;7.958;2023-04-10T08:33:43;98217.66;;;22.94;27.54
78509;BME280;67802;50.846;7.958;2023-04-10T08:36:09;98218.38;;;22.96;27.17
78509;BME280;67802;50.846;7.958;2023-04-10T08:38:34;98208.63;;;22.97;27.30
78509;BME280;67802;50.846;7.958;2023-04-10T08:40:59;98206.09;;;22.95;27.25
78509;BME280;67802;50.846;7.958;2023-04-10T08:43:25;98202.75;;;22.93;27.33
78509;BME280;67802;50.846;7.958;2023-04-10T08:45:51;98197.59;;;22.92;27.59
78509;BME280;67802;50.846;7.958;2023-04-10T08:48:18;98190.75;;;22.89;27.52
78509;BME280;67802;50.846;7.958;2023-04-10T08:50:45;98198.84;;;22.88;27.68
78509;BME280;67802;50.846;7.958;2023-04-10T08:53:12;98192.84;;;22.86;27.54
78509;BME280;67802;50.846;7.958;2023-04-10T08:55:39;98198.25;;;22.84;27.38
78509;BME280;67802;50.846;7.958;2023-04-10T08:58:05;98187.09;;;22.80;27.41
78509;BME280;67802;50.846;7.958;2023-04-10T09:00:35;98191.56;;;22.80;27.46
78509;BME280;67802;50.846;7.958;2023-04-10T09:03:04;98176.63;;;22.79;27.87
78509;BME280;67802;50.846;7.958;2023-04-10T09:05:33;98174.00;;;22.79;27.67
78509;BME280;67802;50.846;7.958;2023-04-10T09:07:59;98170.38;;;22.80;27.73
78509;BME280;67802;50.846;7.958;2023-04-10T09:10:25;98174.00;;;22.79;27.40
78509;BME280;67802;50.846;7.958;2023-04-10T09:12:50;98177.34;;;22.81;27.69
78509;BME280;67802;50.846;7.958;2023-04-10T09:15:16;98180.97;;;22.80;27.64
78509;BME280;67802;50.846;7.958;2023-04-10T09:18:01;98171.22;;;22.80;27.66
78509;BME280;67802;50.846;7.958;2023-04-10T09:20:29;98176.63;;;22.79;27.71
78509;BME280;67802;50.846;7.958;2023-04-10T09:22:55;98171.34;;;22.79;27.73
78509;BME280;67802;50.846;7.958;2023-04-10T09:28:02;98167.72;;;22.80;27.50
78509;BME280;67802;50.846;7.958;2023-04-10T09:30:41;98162.31;;;22.81;27.70
78509;BME280;67802;50.846;7.958;2023-04-10T09:33:26;98154.19;;;22.83;27.80
78509;BME280;67802;50.846;7.958;2023-04-10T09:35:52;98145.28;;;22.84;27.83
78509;BME280;67802;50.846;7.958;2023-04-10T09:38:21;98148.91;;;22.83;27.76
78509;BME280;67802;50.846;7.958;2023-04-10T09:40:47;98137.50;;;22.82;27.70
78509;BME280;67802;50.846;7.958;2023-04-10T09:43:20;98134.97;;;22.81;27.54
78509;BME280;67802;50.846;7.958;2023-04-10T09:45:46;98142.22;;;22.79;27.67
78509;BME280;67802;50.846;7.958;2023-04-10T09:48:12;98136.25;;;22.77;27.65
78509;BME280;67802;50.846;7.958;2023-04-10T09:50:38;98127.59;;;22.75;27.75
78509;BME280;67802;50.846;7.958;2023-04-10T09:53:05;98121.59;;;22.73;27.54
78509;BME280;67802;50.846;7.958;2023-04-10T09:55:31;98127.88;;;22.72;27.66
78509;BME280;67802;50.846;7.958;2023-04-10T09:57:59;98121.88;;;22.70;27.54
78509;BME280;67802;50.846;7.958;2023-04-10T10:00:25;98108.91;;;22.66;27.69
78509;BME280;67802;50.846;7.958;2023-04-10T10:02:51;98106.53;;;22.63;27.70
78509;BME280;67802;50.846;7.958;2023-04-10T10:05:17;98102.19;;;22.62;27.72
78509;BME280;67802;50.846;7.958;2023-04-10T10:07:43;98089.22;;;22.59;27.45
78509;BME280;67802;50.846;7.958;2023-04-10T10:10:10;98099.94;;;22.58;27.80
78509;BME280;67802;50.846;7.958;2023-04-10T10:12:46;98091.28;;;22.56;27.62
78509;BME280;67802;50.846;7.958;2023-04-10T10:20:43;98084.75;;;22.50;27.64
78509;BME280;67802;50.846;7.958;2023-04-10T10:23:09;98080.44;;;22.49;27.69
78509;BME280;67802;50.846;7.958;2023-04-10T10:25:34;98089.50;;;22.46;27.58
78509;BME280;67802;50.846;7.958;2023-04-10T10:28:03;98082.63;;;22.44;27.64
78509;BME280;67802;50.846;7.958;2023-04-10T10:30:32;98078.44;;;22.41;27.71
78509;BME280;67802;50.846;7.958;2023-04-10T10:33:00;98084.69;;;22.40;27.33
78509;BME280;67802;50.846;7.958;2023-04-10T10:35:26;98076.06;;;22.38;27.76
78509;BME280;67802;50.846;7.958;2023-04-10T10:37:53;98080.75;;;22.34;27.79
78509;BME280;67802;50.846;7.958;2023-04-10T10:40:31;98077.41;;;22.32;27.83
78509;BME280;67802;50.846;7.958;2023-04-10T10:43:11;98060.84;;;22.30;27.81
78509;BME280;67802;50.846;7.958;2023-04-10T10:45:47;98060.13;;;22.28;28.02
78509;BME280;67802;50.846;7.958;2023-04-10T10:48:14;98062.06;;;22.26;27.66
78509;BME280;67802;50.846;7.958;2023-04-10T10:50:50;98044.56;;;22.25;27.93
78509;BME280;67802;50.846;7.958;2023-04-10T10:53:42;98048.16;;;22.24;27.87
78509;BME280;67802;50.846;7.958;2023-04-10T10:58:49;98053.72;;;22.21;27.95
78509;BME280;67802;50.846;7.958;2023-04-10T11:01:15;98040.50;;;22.21;28.11
78509;BME280;67802;50.846;7.958;2023-04-10T11:03:41;98037.97;;;22.19;28.10
78509;BME280;67802;50.846;7.958;2023-04-10T11:06:10;98038.13;;;22.18;28.09
78509;BME280;67802;50.846;7.958;2023-04-10T11:08:38;98031.16;;;22.17;27.73
78509;BME280;67802;50.846;7.958;2023-04-10T11:11:20;98021.66;;;22.14;27.82
78509;BME280;67802;50.846;7.958;2023-04-10T11:16:23;98027.38;;;22.09;27.87
78509;BME280;67802;50.846;7.958;2023-04-10T11:19:07;98018.72;;;22.07;27.91
78509;BME280;67802;50.846;7.958;2023-04-10T11:21:34;98018.84;;;22.06;27.95
78509;BME280;67802;50.846;7.958;2023-04-10T11:31:37;98006.03;;;22.01;28.09
78509;BME280;67802;50.846;7.958;2023-04-10T11:34:04;98012.31;;;22.00;28.20
78509;BME280;67802;50.846;7.958;2023-04-10T11:36:31;98002.69;;;21.99;28.13
78509;BME280;67802;50.846;7.958;2023-04-10T11:39:00;98004.53;;;21.99;28.17
78509;BME280;67802;50.846;7.958;2023-04-10T11:41:40;98000.19;;;21.98;28.22
78509;BME280;67802;50.846;7.958;2023-04-10T11:44:07;97991.41;;;21.97;28.32
78509;BME280;67802;50.846;7.958;2023-04-10T11:46:35;97981.81;;;21.96;28.15
78509;BME280;67802;50.846;7.958;2023-04-10T11:49:03;97990.72;;;21.95;28.41
78509;BME280;67802;50.846;7.958;2023-04-10T11:51:29;97975.53;;;21.97;28.12
78509;BME280;67802;50.846;7.958;2023-04-10T11:56:37;97964.97;;;21.97;28.36
78509;BME280;67802;50.846;7.958;2023-04-10T11:59:03;97968.47;;;21.98;28.29
78509;BME280;67802;50.846;7.958;2023-04-10T12:01:34;97962.31;;;21.97;28.14
78509;BME280;67802;50.846;7.958;2023-04-10T12:03:59;97957.88;;;21.98;28.34
78509;BME280;67802;50.846;7.958;2023-04-10T12:06:26;97952.59;;;21.98;28.17
78509;BME280;67802;50.846;7.958;2023-04-10T12:08:52;97948.13;;;21.98;28.27
78509;BME280;67802;50.846;7.958;2023-04-10T12:11:19;97948.97;;;21.99;28.34
78509;BME280;67802;50.846;7.958;2023-04-10T12:13:45;97938.25;;;22.00;28.39
78509;BME280;67802;50.846;7.958;2023-04-10T12:16:11;97935.59;;;22.00;27.96
78509;BME280;67802;50.846;7.958;2023-04-10T12:18:37;97927.66;;;22.00;28.31
78509;BME280;67802;50.846;7.958;2023-04-10T12:21:03;97923.06;;;22.02;28.35
78509;BME280;67802;50.846;7.958;2023-04-10T12:23:29;97920.44;;;22.02;28.09
78509;BME280;67802;50.846;7.958;2023-04-10T12:26:12;97918.59;;;22.03;28.40
78509;BME280;67802;50.846;7.958;2023-04-10T12:28:39;97918.47;;;22.04;27.96
78509;BME280;67802;50.846;7.958;2023-04-10T12:31:06;97908.72;;;22.05;28.19
78509;BME280;67802;50.846;7.958;2023-04-10T12:33:32;97906.94;;;22.05;28.02
78509;BME280;67802;50.846;7.958;2023-04-10T12:35:57;97900.66;;;22.06;28.36
78509;BME280;67802;50.846;7.958;2023-04-10T12:38:42;97898.84;;;22.07;28.06
78509;BME280;67802;50.846;7.958;2023-04-10T12:41:10;97883.81;;;22.07;28.36
78509;BME280;67802;50.846;7.958;2023-04-10T12:43:40;97879.34;;;22.08;28.22
78509;BME280;67802;50.846;7.958;2023-04-10T12:46:08;97885.50;;;22.08;28.32
78509;BME280;67802;50.846;7.958;2023-04-10T12:48:34;97887.16;;;22.09;28.09
78509;BME280;67802;50.846;7.958;2023-04-10T12:51:00;97881.03;;;22.09;28.27
78509;BME280;67802;50.846;7.958;2023-04-10T12:53:26;97881.88;;;22.09;27.99
78509;BME280;67802;50.846;7.958;2023-04-10T12:56:05;97882.84;;;22.08;28.36
78509;BME280;67802;50.846;7.958;2023-04-10T12:58:33;97873.09;;;22.09;28.30
78509;BME280;67802;50.846;7.958;2023-04-10T13:01:02;97867.81;;;22.09;28.39
78509;BME280;67802;50.846;7.958;2023-04-10T13:03:28;97863.47;;;22.08;28.37
78509;BME280;67802;50.846;7.958;2023-04-10T13:05:53;97859.88;;;22.09;28.27
78509;BME280;67802;50.846;7.958;2023-04-10T13:08:20;97856.41;;;22.08;28.42
78509;BME280;67802;50.846;7.958;2023-04-10T13:10:46;97853.75;;;22.08;27.98
78509;BME280;67802;50.846;7.958;2023-04-10T13:13:11;97851.09;;;22.08;28.09
78509;BME280;67802;50.846;7.958;2023-04-10T13:15:37;97842.31;;;22.08;28.27
78509;BME280;67802;50.846;7.958;2023-04-10T13:18:03;97847.63;;;22.08;27.90
78509;BME280;67802;50.846;7.958;2023-04-10T13:20:31;97836.91;;;22.09;28.05
78509;BME280;67802;50.846;7.958;2023-04-10T13:22:56;97830.91;;;22.07;28.21
78509;BME280;67802;50.846;7.958;2023-04-10T13:25:21;97819.50;;;22.07;28.00
78509;BME280;67802;50.846;7.958;2023-04-10T13:27:47;97819.50;;;22.07;28.14
78509;BME280;67802;50.846;7.958;2023-04-10T13:30:12;97813.38;;;22.06;28.11